sensor_id;sensor_type;location;lat;lon;timestamp;P1;durP1;ratioP1;P2;durP2;ratioP2
75408;SDS011;63979;55.644;37.734;2023-05-08T00:02:15;11.80;;;4.28;;
75408;SDS011;63979;55.644;37.734;2023-05-08T00:07:16;7.97;;;4.15;;
75408;SDS011;63979;55.644;37.734;2023-05-08T00:12:17;10.38;;;4.68;;
75408;SDS011;63979;55.644;37.734;2023-05-08T00:17:18;11.30;;;5.20;;
75408;SDS011;63979;55.644;37.734;2023-05-08T00:22:20;15.38;;;4.95;;
75408;SDS011;63979;55.644;37.734;2023-05-08T00:27:21;14.55;;;5.55;;
75408;SDS011;63979;55.644;37.734;2023-05-08T00:32:22;10.30;;;4.88;;
75408;SDS011;63979;55.644;37.734;2023-05-08T00:37:23;7.97;;;4.78;;
75408;SDS011;63979;55.644;37.734;2023-05-08T00:42:24;4.38;;;3.13;;
75408;SDS011;63979;55.644;37.734;2023-05-08T00:47:25;10.10;;;4.30;;
75408;SDS011;63979;55.644;37.734;2023-05-08T00:52:26;5.75;;;3.75;;
75408;SDS011;63979;55.644;37.734;2023-05-08T00:57:31;5.57;;;3.20;;
75408;SDS011;63979;55.644;37.734;2023-05-08T01:02:35;9.38;;;4.38;;
75408;SDS011;63979;55.644;37.734;2023-05-08T01:07:36;9.77;;;4.80;;
75408;SDS011;63979;55.644;37.734;2023-05-08T01:18:22;8.65;;;4.63;;
75408;SDS011;63979;55.644;37.734;2023-05-08T01:34:31;10.43;;;4.38;;
75408;SDS011;63979;55.644;37.734;2023-05-08T01:39:40;8.32;;;4.03;;
75408;SDS011;63979;55.644;37.734;2023-05-08T01:44:48;7.82;;;4.13;;
75408;SDS011;63979;55.644;37.734;2023-05-08T01:50:03;15.60;;;5.13;;
75408;SDS011;63979;55.644;37.734;2023-05-08T01:55:09;10.63;;;4.50;;
75408;SDS011;63979;55.644;37.734;2023-05-08T02:00:15;9.52;;;4.90;;
75408;SDS011;63979;55.644;37.734;2023-05-08T02:05:19;10.57;;;4.50;;
75408;SDS011;63979;55.644;37.734;2023-05-08T02:10:22;10.60;;;5.40;;
75408;SDS011;63979;55.644;37.734;2023-05-08T02:15:25;12.25;;;5.47;;
75408;SDS011;63979;55.644;37.734;2023-05-08T02:20:28;9.48;;;4.78;;
75408;SDS011;63979;55.644;37.734;2023-05-08T02:25:32;8.45;;;4.50;;
75408;SDS011;63979;55.644;37.734;2023-05-08T02:30:33;10.25;;;4.43;;
75408;SDS011;63979;55.644;37.734;2023-05-08T02:35:34;11.10;;;5.18;;
75408;SDS011;63979;55.644;37.734;2023-05-08T02:40:45;13.95;;;4.88;;
75408;SDS011;63979;55.644;37.734;2023-05-08T02:45:51;12.27;;;5.50;;
75408;SDS011;63979;55.644;37.734;2023-05-08T02:51:21;10.98;;;5.43;;
75408;SDS011;63979;55.644;37.734;2023-05-08T02:57:09;12.27;;;5.70;;
75408;SDS011;63979;55.644;37.734;2023-05-08T03:02:36;8.82;;;3.55;;
75408;SDS011;63979;55.644;37.734;2023-05-08T03:07:26;13.27;;;5.65;;
75408;SDS011;63979;55.644;37.734;2023-05-08T03:12:30;9.70;;;4.55;;
75408;SDS011;63979;55.644;37.734;2023-05-08T03:17:34;15.52;;;5.10;;
75408;SDS011;63979;55.644;37.734;2023-05-08T03:22:37;8.85;;;4.82;;
75408;SDS011;63979;55.644;37.734;2023-05-08T03:27:41;8.50;;;4.70;;
75408;SDS011;63979;55.644;37.734;2023-05-08T03:37:46;10.63;;;5.30;;
75408;SDS011;63979;55.644;37.734;2023-05-08T03:42:47;7.20;;;4.43;;
75408;SDS011;63979;55.644;37.734;2023-05-08T03:47:50;8.45;;;5.13;;
75408;SDS011;63979;55.644;37.734;2023-05-08T03:52:53;8.68;;;5.22;;
75408;SDS011;63979;55.644;37.734;2023-05-08T03:58:17;8.07;;;5.13;;
75408;SDS011;63979;55.644;37.734;2023-05-08T04:08:43;9.07;;;4.85;;
75408;SDS011;63979;55.644;37.734;2023-05-08T04:19:14;9.10;;;4.47;;
75408;SDS011;63979;55.644;37.734;2023-05-08T04:24:20;6.78;;;3.22;;
75408;SDS011;63979;55.644;37.734;2023-05-08T04:34:24;4.00;;;2.42;;
75408;SDS011;63979;55.644;37.734;2023-05-08T04:39:25;5.53;;;3.35;;
75408;SDS011;63979;55.644;37.734;2023-05-08T04:44:26;5.88;;;2.35;;
75408;SDS011;63979;55.644;37.734;2023-05-08T04:49:27;2.90;;;1.98;;
75408;SDS011;63979;55.644;37.734;2023-05-08T04:54:29;2.55;;;2.00;;
75408;SDS011;63979;55.644;37.734;2023-05-08T04:59:30;2.55;;;1.92;;
75408;SDS011;63979;55.644;37.734;2023-05-08T05:04:32;2.70;;;1.80;;
75408;SDS011;63979;55.644;37.734;2023-05-08T05:09:34;3.17;;;1.42;;
75408;SDS011;63979;55.644;37.734;2023-05-08T05:14:36;4.95;;;1.92;;
75408;SDS011;63979;55.644;37.734;2023-05-08T05:19:40;2.90;;;1.58;;
75408;SDS011;63979;55.644;37.734;2023-05-08T05:24:41;6.15;;;1.60;;
75408;SDS011;63979;55.644;37.734;2023-05-08T05:29:42;1.98;;;1.15;;
75408;SDS011;63979;55.644;37.734;2023-05-08T05:34:44;2.30;;;1.23;;
75408;SDS011;63979;55.644;37.734;2023-05-08T05:39:48;2.25;;;1.63;;
75408;SDS011;63979;55.644;37.734;2023-05-08T05:44:49;3.30;;;1.35;;
75408;SDS011;63979;55.644;37.734;2023-05-08T05:49:50;2.95;;;1.15;;
75408;SDS011;63979;55.644;37.734;2023-05-08T05:54:51;3.45;;;1.27;;
75408;SDS011;63979;55.644;37.734;2023-05-08T05:59:52;1.73;;;1.25;;
75408;SDS011;63979;55.644;37.734;2023-05-08T06:04:53;3.30;;;1.10;;
75408;SDS011;63979;55.644;37.734;2023-05-08T06:09:54;2.05;;;0.80;;
75408;SDS011;63979;55.644;37.734;2023-05-08T06:14:55;1.75;;;0.70;;
75408;SDS011;63979;55.644;37.734;2023-05-08T06:19:56;3.70;;;1.00;;
75408;SDS011;63979;55.644;37.734;2023-05-08T06:24:57;1.15;;;0.85;;
75408;SDS011;63979;55.644;37.734;2023-05-08T06:29:59;13.30;;;8.20;;
75408;SDS011;63979;55.644;37.734;2023-05-08T06:35:00;1.80;;;1.50;;
75408;SDS011;63979;55.644;37.734;2023-05-08T06:40:02;2.03;;;1.27;;
75408;SDS011;63979;55.644;37.734;2023-05-08T06:45:04;1.88;;;1.42;;
75408;SDS011;63979;55.644;37.734;2023-05-08T06:50:06;3.35;;;1.60;;
75408;SDS011;63979;55.644;37.734;2023-05-08T06:55:08;3.03;;;1.40;;
75408;SDS011;63979;55.644;37.734;2023-05-08T07:00:09;1.33;;;1.17;;
75408;SDS011;63979;55.644;37.734;2023-05-08T07:05:11;1.58;;;1.00;;
75408;SDS011;63979;55.644;37.734;2023-05-08T07:10:12;3.05;;;1.27;;
75408;SDS011;63979;55.644;37.734;2023-05-08T07:15:13;2.38;;;1.30;;
75408;SDS011;63979;55.644;37.734;2023-05-08T07:20:15;2.55;;;1.20;;
75408;SDS011;63979;55.644;37.734;2023-05-08T07:25:16;1.80;;;1.25;;
75408;SDS011;63979;55.644;37.734;2023-05-08T07:30:17;3.22;;;1.20;;
75408;SDS011;63979;55.644;37.734;2023-05-08T07:35:18;1.42;;;1.02;;
75408;SDS011;63979;55.644;37.734;2023-05-08T07:40:19;1.95;;;1.08;;
75408;SDS011;63979;55.644;37.734;2023-05-08T07:45:20;1.80;;;1.10;;
75408;SDS011;63979;55.644;37.734;2023-05-08T07:50:22;12.23;;;3.05;;
75408;SDS011;63979;55.644;37.734;2023-05-08T07:55:23;2.95;;;0.98;;
75408;SDS011;63979;55.644;37.734;2023-05-08T08:00:24;4.47;;;2.40;;
75408;SDS011;63979;55.644;37.734;2023-05-08T08:05:29;0.80;;;0.80;;
75408;SDS011;63979;55.644;37.734;2023-05-08T08:10:29;1.60;;;0.95;;
75408;SDS011;63979;55.644;37.734;2023-05-08T08:20:31;4.40;;;1.23;;
75408;SDS011;63979;55.644;37.734;2023-05-08T08:30:33;2.85;;;1.55;;
75408;SDS011;63979;55.644;37.734;2023-05-08T08:35:34;4.28;;;1.15;;
75408;SDS011;63979;55.644;37.734;2023-05-08T08:40:41;2.25;;;1.00;;
75408;SDS011;63979;55.644;37.734;2023-05-08T08:45:43;2.53;;;0.98;;
75408;SDS011;63979;55.644;37.734;2023-05-08T08:50:43;8.65;;;3.58;;
75408;SDS011;63979;55.644;37.734;2023-05-08T09:00:52;1.50;;;0.85;;
75408;SDS011;63979;55.644;37.734;2023-05-08T09:05:55;1.13;;;0.80;;
75408;SDS011;63979;55.644;37.734;2023-05-08T09:10:59;2.67;;;0.80;;
75408;SDS011;63979;55.644;37.734;2023-05-08T09:16:01;1.70;;;0.70;;
75408;SDS011;63979;55.644;37.734;2023-05-08T09:21:04;2.72;;;0.90;;
75408;SDS011;63979;55.644;37.734;2023-05-08T09:26:06;0.82;;;0.60;;
75408;SDS011;63979;55.644;37.734;2023-05-08T09:31:08;0.93;;;0.85;;
75408;SDS011;63979;55.644;37.734;2023-05-08T09:36:23;2.42;;;0.90;;
75408;SDS011;63979;55.644;37.734;2023-05-08T09:41:27;1.35;;;1.10;;
75408;SDS011;63979;55.644;37.734;2023-05-08T09:51:30;3.03;;;1.30;;
75408;SDS011;63979;55.644;37.734;2023-05-08T09:56:38;2.53;;;1.08;;
75408;SDS011;63979;55.644;37.734;2023-05-08T10:01:39;2.05;;;1.17;;
75408;SDS011;63979;55.644;37.734;2023-05-08T10:06:40;2.55;;;1.02;;
75408;SDS011;63979;55.644;37.734;2023-05-08T10:11:47;3.00;;;1.10;;
75408;SDS011;63979;55.644;37.734;2023-05-08T10:16:54;1.05;;;0.70;;
75408;SDS011;63979;55.644;37.734;2023-05-08T10:21:57;1.15;;;0.75;;
75408;SDS011;63979;55.644;37.734;2023-05-08T10:32:27;4.68;;;1.33;;
75408;SDS011;63979;55.644;37.734;2023-05-08T10:37:39;1.42;;;0.85;;
75408;SDS011;63979;55.644;37.734;2023-05-08T10:42:41;6.80;;;6.20;;
75408;SDS011;63979;55.644;37.734;2023-05-08T10:58:37;1.08;;;0.90;;
75408;SDS011;63979;55.644;37.734;2023-05-08T11:03:41;4.90;;;1.42;;
75408;SDS011;63979;55.644;37.734;2023-05-08T11:08:50;2.22;;;1.00;;
75408;SDS011;63979;55.644;37.734;2023-05-08T11:13:56;1.63;;;0.90;;
75408;SDS011;63979;55.644;37.734;2023-05-08T11:19:17;1.27;;;1.17;;
75408;SDS011;63979;55.644;37.734;2023-05-08T11:24:20;2.50;;;1.17;;
75408;SDS011;63979;55.644;37.734;2023-05-08T11:29:35;2.28;;;0.88;;
75408;SDS011;63979;55.644;37.734;2023-05-08T11:34:43;2.83;;;1.20;;
75408;SDS011;63979;55.644;37.734;2023-05-08T11:39:45;3.05;;;1.20;;
75408;SDS011;63979;55.644;37.734;2023-05-08T11:44:47;2.83;;;1.10;;
75408;SDS011;63979;55.644;37.734;2023-05-08T11:49:49;4.22;;;1.60;;
75408;SDS011;63979;55.644;37.734;2023-05-08T11:54:50;2.15;;;1.10;;
75408;SDS011;63979;55.644;37.734;2023-05-08T11:59:51;3.33;;;1.30;;
75408;SDS011;63979;55.644;37.734;2023-05-08T12:04:52;2.28;;;0.98;;
75408;SDS011;63979;55.644;37.734;2023-05-08T12:14:54;1.00;;;0.90;;
75408;SDS011;63979;55.644;37.734;2023-05-08T12:19:56;1.77;;;1.00;;
75408;SDS011;63979;55.644;37.734;2023-05-08T12:25:09;1.05;;;0.90;;
75408;SDS011;63979;55.644;37.734;2023-05-08T12:30:12;1.17;;;0.90;;
75408;SDS011;63979;55.644;37.734;2023-05-08T12:35:13;2.63;;;1.00;;
75408;SDS011;63979;55.644;37.734;2023-05-08T12:40:26;2.53;;;0.90;;
75408;SDS011;63979;55.644;37.734;2023-05-08T12:45:29;2.33;;;1.08;;
75408;SDS011;63979;55.644;37.734;2023-05-08T12:50:34;4.80;;;2.20;;
75408;SDS011;63979;55.644;37.734;2023-05-08T12:55:37;3.95;;;1.27;;
75408;SDS011;63979;55.644;37.734;2023-05-08T13:00:44;3.80;;;2.13;;
75408;SDS011;63979;55.644;37.734;2023-05-08T13:05:51;7.82;;;1.35;;
75408;SDS011;63979;55.644;37.734;2023-05-08T13:10:54;2.55;;;1.15;;
75408;SDS011;63979;55.644;37.734;2023-05-08T13:15:56;5.28;;;1.33;;
75408;SDS011;63979;55.644;37.734;2023-05-08T13:20:58;2.80;;;1.50;;
75408;SDS011;63979;55.644;37.734;2023-05-08T13:26:01;2.47;;;1.02;;
75408;SDS011;63979;55.644;37.734;2023-05-08T13:31:03;6.07;;;2.38;;
75408;SDS011;63979;55.644;37.734;2023-05-08T13:36:04;3.60;;;1.00;;
75408;SDS011;63979;55.644;37.734;2023-05-08T13:41:06;2.10;;;1.20;;
75408;SDS011;63979;55.644;37.734;2023-05-08T13:46:07;3.85;;;1.30;;
75408;SDS011;63979;55.644;37.734;2023-05-08T13:51:08;7.82;;;2.70;;
75408;SDS011;63979;55.644;37.734;2023-05-08T13:56:09;3.35;;;1.08;;
75408;SDS011;63979;55.644;37.734;2023-05-08T14:01:10;2.15;;;1.05;;
75408;SDS011;63979;55.644;37.734;2023-05-08T14:06:12;3.75;;;1.20;;
75408;SDS011;63979;55.644;37.734;2023-05-08T14:11:12;2.53;;;0.93;;
75408;SDS011;63979;55.644;37.734;2023-05-08T14:16:14;1.52;;;1.20;;
75408;SDS011;63979;55.644;37.734;2023-05-08T14:26:16;1.45;;;1.23;;
75408;SDS011;63979;55.644;37.734;2023-05-08T14:31:17;4.22;;;1.52;;
75408;SDS011;63979;55.644;37.734;2023-05-08T14:36:18;3.15;;;1.70;;
75408;SDS011;63979;55.644;37.734;2023-05-08T14:41:19;3.50;;;2.60;;
75408;SDS011;63979;55.644;37.734;2023-05-08T14:46:21;6.45;;;1.50;;
75408;SDS011;63979;55.644;37.734;2023-05-08T14:51:22;2.13;;;1.27;;
75408;SDS011;63979;55.644;37.734;2023-05-08T14:56:24;2.53;;;1.20;;
75408;SDS011;63979;55.644;37.734;2023-05-08T15:01:25;3.90;;;1.48;;
75408;SDS011;63979;55.644;37.734;2023-05-08T15:06:26;2.03;;;1.33;;
75408;SDS011;63979;55.644;37.734;2023-05-08T15:11:27;4.95;;;3.45;;
75408;SDS011;63979;55.644;37.734;2023-05-08T15:16:29;3.00;;;1.42;;
75408;SDS011;63979;55.644;37.734;2023-05-08T15:21:30;3.33;;;1.40;;
75408;SDS011;63979;55.644;37.734;2023-05-08T15:26:31;1.65;;;1.17;;
75408;SDS011;63979;55.644;37.734;2023-05-08T15:31:32;3.95;;;1.58;;
75408;SDS011;63979;55.644;37.734;2023-05-08T15:36:33;3.15;;;1.42;;
75408;SDS011;63979;55.644;37.734;2023-05-08T15:41:34;3.60;;;1.20;;
75408;SDS011;63979;55.644;37.734;2023-05-08T15:46:37;1.83;;;1.00;;
75408;SDS011;63979;55.644;37.734;2023-05-08T15:51:38;3.95;;;1.60;;
75408;SDS011;63979;55.644;37.734;2023-05-08T15:56:39;9.55;;;2.40;;
75408;SDS011;63979;55.644;37.734;2023-05-08T16:01:40;1.38;;;1.15;;
75408;SDS011;63979;55.644;37.734;2023-05-08T16:06:41;2.03;;;1.33;;
75408;SDS011;63979;55.644;37.734;2023-05-08T16:11:42;4.10;;;1.40;;
75408;SDS011;63979;55.644;37.734;2023-05-08T16:16:46;3.95;;;1.38;;
75408;SDS011;63979;55.644;37.734;2023-05-08T16:21:47;5.53;;;1.95;;
75408;SDS011;63979;55.644;37.734;2023-05-08T16:26:48;7.78;;;2.25;;
75408;SDS011;63979;55.644;37.734;2023-05-08T16:31:50;5.63;;;1.50;;
75408;SDS011;63979;55.644;37.734;2023-05-08T16:36:51;4.00;;;1.67;;
75408;SDS011;63979;55.644;37.734;2023-05-08T16:41:52;4.05;;;1.65;;
75408;SDS011;63979;55.644;37.734;2023-05-08T16:46:54;3.90;;;2.00;;
75408;SDS011;63979;55.644;37.734;2023-05-08T16:51:54;3.10;;;1.42;;
75408;SDS011;63979;55.644;37.734;2023-05-08T16:56:56;4.95;;;1.40;;
75408;SDS011;63979;55.644;37.734;2023-05-08T17:01:57;4.95;;;2.10;;
75408;SDS011;63979;55.644;37.734;2023-05-08T17:06:58;7.60;;;2.13;;
75408;SDS011;63979;55.644;37.734;2023-05-08T17:11:59;6.40;;;2.03;;
75408;SDS011;63979;55.644;37.734;2023-05-08T17:17:01;4.10;;;1.90;;
75408;SDS011;63979;55.644;37.734;2023-05-08T17:22:02;9.35;;;3.90;;
75408;SDS011;63979;55.644;37.734;2023-05-08T17:27:04;6.95;;;2.70;;
75408;SDS011;63979;55.644;37.734;2023-05-08T17:32:08;4.05;;;2.20;;
75408;SDS011;63979;55.644;37.734;2023-05-08T17:37:09;4.90;;;2.42;;
75408;SDS011;63979;55.644;37.734;2023-05-08T17:42:11;5.50;;;2.38;;
75408;SDS011;63979;55.644;37.734;2023-05-08T17:47:12;5.82;;;3.25;;
75408;SDS011;63979;55.644;37.734;2023-05-08T17:52:13;8.27;;;3.42;;
75408;SDS011;63979;55.644;37.734;2023-05-08T17:57:14;7.97;;;3.72;;
75408;SDS011;63979;55.644;37.734;2023-05-08T18:02:15;8.98;;;3.75;;
75408;SDS011;63979;55.644;37.734;2023-05-08T18:07:16;15.18;;;4.78;;
75408;SDS011;63979;55.644;37.734;2023-05-08T18:12:16;8.20;;;4.20;;
75408;SDS011;63979;55.644;37.734;2023-05-08T18:17:17;21.33;;;6.65;;
75408;SDS011;63979;55.644;37.734;2023-05-08T18:22:19;16.77;;;5.60;;
75408;SDS011;63979;55.644;37.734;2023-05-08T18:27:20;16.98;;;6.07;;
75408;SDS011;63979;55.644;37.734;2023-05-08T18:32:21;16.35;;;6.00;;
75408;SDS011;63979;55.644;37.734;2023-05-08T18:37:22;10.43;;;4.47;;
75408;SDS011;63979;55.644;37.734;2023-05-08T18:42:24;11.57;;;4.97;;
75408;SDS011;63979;55.644;37.734;2023-05-08T18:47:25;13.95;;;5.32;;
75408;SDS011;63979;55.644;37.734;2023-05-08T18:52:26;20.08;;;5.90;;
75408;SDS011;63979;55.644;37.734;2023-05-08T18:57:27;5.93;;;3.80;;
75408;SDS011;63979;55.644;37.734;2023-05-08T19:02:28;10.25;;;4.22;;
75408;SDS011;63979;55.644;37.734;2023-05-08T19:07:29;12.15;;;4.07;;
75408;SDS011;63979;55.644;37.734;2023-05-08T19:12:30;12.55;;;4.00;;
75408;SDS011;63979;55.644;37.734;2023-05-08T19:17:31;10.15;;;3.60;;
75408;SDS011;63979;55.644;37.734;2023-05-08T19:22:34;8.18;;;3.72;;
75408;SDS011;63979;55.644;37.734;2023-05-08T19:27:35;9.00;;;4.15;;
75408;SDS011;63979;55.644;37.734;2023-05-08T19:32:36;15.82;;;4.80;;
75408;SDS011;63979;55.644;37.734;2023-05-08T19:37:37;14.85;;;4.88;;
75408;SDS011;63979;55.644;37.734;2023-05-08T19:42:38;6.43;;;3.75;;
75408;SDS011;63979;55.644;37.734;2023-05-08T19:47:39;14.98;;;4.78;;
75408;SDS011;63979;55.644;37.734;2023-05-08T19:52:40;16.83;;;5.45;;
75408;SDS011;63979;55.644;37.734;2023-05-08T19:57:41;17.08;;;5.28;;
75408;SDS011;63979;55.644;37.734;2023-05-08T20:02:42;12.05;;;5.00;;
75408;SDS011;63979;55.644;37.734;2023-05-08T20:07:43;14.68;;;5.32;;
75408;SDS011;63979;55.644;37.734;2023-05-08T20:12:44;10.40;;;4.78;;
75408;SDS011;63979;55.644;37.734;2023-05-08T20:17:45;15.13;;;5.03;;
75408;SDS011;63979;55.644;37.734;2023-05-08T20:22:46;13.35;;;4.82;;
75408;SDS011;63979;55.644;37.734;2023-05-08T20:27:47;15.73;;;5.32;;
75408;SDS011;63979;55.644;37.734;2023-05-08T20:32:48;16.70;;;5.57;;
75408;SDS011;63979;55.644;37.734;2023-05-08T20:37:48;10.65;;;5.00;;
75408;SDS011;63979;55.644;37.734;2023-05-08T20:42:49;14.88;;;5.00;;
75408;SDS011;63979;55.644;37.734;2023-05-08T20:47:50;21.77;;;7.00;;
75408;SDS011;63979;55.644;37.734;2023-05-08T20:52:51;11.63;;;5.38;;
75408;SDS011;63979;55.644;37.734;2023-05-08T20:57:53;13.98;;;6.20;;
75408;SDS011;63979;55.644;37.734;2023-05-08T21:02:53;15.05;;;6.57;;
75408;SDS011;63979;55.644;37.734;2023-05-08T21:07:55;10.77;;;6.70;;
75408;SDS011;63979;55.644;37.734;2023-05-08T21:12:59;21.15;;;8.45;;
75408;SDS011;63979;55.644;37.734;2023-05-08T21:18:00;27.58;;;6.97;;
75408;SDS011;63979;55.644;37.734;2023-05-08T21:23:01;20.80;;;8.00;;
75408;SDS011;63979;55.644;37.734;2023-05-08T21:28:02;34.22;;;8.30;;
75408;SDS011;63979;55.644;37.734;2023-05-08T21:33:03;14.75;;;7.03;;
75408;SDS011;63979;55.644;37.734;2023-05-08T21:38:04;13.02;;;7.25;;
75408;SDS011;63979;55.644;37.734;2023-05-08T21:43:05;15.65;;;6.32;;
75408;SDS011;63979;55.644;37.734;2023-05-08T21:48:06;16.33;;;7.25;;
75408;SDS011;63979;55.644;37.734;2023-05-08T21:53:06;25.48;;;8.60;;
75408;SDS011;63979;55.644;37.734;2023-05-08T21:58:07;33.97;;;9.77;;
75408;SDS011;63979;55.644;37.734;2023-05-08T22:03:08;22.52;;;10.80;;
75408;SDS011;63979;55.644;37.734;2023-05-08T22:08:09;26.25;;;11.25;;
75408;SDS011;63979;55.644;37.734;2023-05-08T22:13:11;22.73;;;9.60;;
75408;SDS011;63979;55.644;37.734;2023-05-08T22:18:12;24.50;;;9.13;;
75408;SDS011;63979;55.644;37.734;2023-05-08T22:23:13;20.70;;;10.57;;
75408;SDS011;63979;55.644;37.734;2023-05-08T22:28:14;22.10;;;9.98;;
75408;SDS011;63979;55.644;37.734;2023-05-08T22:33:15;24.40;;;10.68;;
75408;SDS011;63979;55.644;37.734;2023-05-08T22:38:16;26.00;;;10.43;;
75408;SDS011;63979;55.644;37.734;2023-05-08T22:43:17;30.98;;;11.35;;
75408;SDS011;63979;55.644;37.734;2023-05-08T22:48:18;23.38;;;9.68;;
75408;SDS011;63979;55.644;37.734;2023-05-08T22:53:19;26.55;;;10.25;;
75408;SDS011;63979;55.644;37.734;2023-05-08T22:58:20;23.85;;;11.07;;
75408;SDS011;63979;55.644;37.734;2023-05-08T23:03:24;16.33;;;9.35;;
75408;SDS011;63979;55.644;37.734;2023-05-08T23:08:25;22.63;;;9.07;;
75408;SDS011;63979;55.644;37.734;2023-05-08T23:13:26;23.75;;;10.40;;
75408;SDS011;63979;55.644;37.734;2023-05-08T23:18:27;22.75;;;10.65;;
75408;SDS011;63979;55.644;37.734;2023-05-08T23:23:28;21.23;;;10.02;;
75408;SDS011;63979;55.644;37.734;2023-05-08T23:28:30;21.80;;;10.20;;
75408;SDS011;63979;55.644;37.734;2023-05-08T23:33:32;31.33;;;10.88;;
75408;SDS011;63979;55.644;37.734;2023-05-08T23:38:33;25.70;;;12.18;;
75408;SDS011;63979;55.644;37.734;2023-05-08T23:43:34;22.35;;;10.77;;
75408;SDS011;63979;55.644;37.734;2023-05-08T23:48:35;24.60;;;10.90;;
75408;SDS011;63979;55.644;37.734;2023-05-08T23:53:35;20.42;;;10.07;;
75408;SDS011;63979;55.644;37.734;2023-05-08T23:58:36;20.60;;;10.50;;
